sensor_id;sensor_type;location;lat;lon;timestamp;P1;durP1;ratioP1;P2;durP2;ratioP2
22531;SDS011;11432;46.924;7.114;2023-09-30T00:00:00;13.85;;;4.80;;
22531;SDS011;11432;46.924;7.114;2023-09-30T00:02:26;15.45;;;4.50;;
22531;SDS011;11432;46.924;7.114;2023-09-30T00:04:52;11.82;;;4.18;;
22531;SDS011;11432;46.924;7.114;2023-09-30T00:07:18;11.73;;;4.55;;
22531;SDS011;11432;46.924;7.114;2023-09-30T00:09:44;12.60;;;4.82;;
22531;SDS011;11432;46.924;7.114;2023-09-30T00:12:10;12.90;;;5.20;;
22531;SDS011;11432;46.924;7.114;2023-09-30T00:14:35;13.80;;;4.68;;
22531;SDS011;11432;46.924;7.114;2023-09-30T00:17:02;12.65;;;4.57;;
22531;SDS011;11432;46.924;7.114;2023-09-30T00:19:28;12.30;;;4.68;;
22531;SDS011;11432;46.924;7.114;2023-09-30T00:21:54;13.10;;;4.68;;
22531;SDS011;11432;46.924;7.114;2023-09-30T00:24:20;10.90;;;4.53;;
22531;SDS011;11432;46.924;7.114;2023-09-30T00:26:45;10.93;;;4.50;;
22531;SDS011;11432;46.924;7.114;2023-09-30T00:29:11;14.27;;;4.88;;
22531;SDS011;11432;46.924;7.114;2023-09-30T00:31:37;14.63;;;4.97;;
22531;SDS011;11432;46.924;7.114;2023-09-30T00:34:02;11.45;;;4.20;;
22531;SDS011;11432;46.924;7.114;2023-09-30T00:36:28;13.90;;;5.00;;
22531;SDS011;11432;46.924;7.114;2023-09-30T00:38:54;14.60;;;4.75;;
22531;SDS011;11432;46.924;7.114;2023-09-30T00:41:19;13.35;;;4.60;;
22531;SDS011;11432;46.924;7.114;2023-09-30T00:43:48;16.90;;;5.70;;
22531;SDS011;11432;46.924;7.114;2023-09-30T00:48:50;12.52;;;4.47;;
22531;SDS011;11432;46.924;7.114;2023-09-30T00:51:16;14.52;;;4.75;;
22531;SDS011;11432;46.924;7.114;2023-09-30T00:53:42;13.63;;;4.30;;
22531;SDS011;11432;46.924;7.114;2023-09-30T00:56:08;11.68;;;4.47;;
22531;SDS011;11432;46.924;7.114;2023-09-30T00:58:35;12.75;;;5.03;;
22531;SDS011;11432;46.924;7.114;2023-09-30T01:01:03;17.92;;;4.70;;
22531;SDS011;11432;46.924;7.114;2023-09-30T01:03:29;16.80;;;4.63;;
22531;SDS011;11432;46.924;7.114;2023-09-30T01:05:55;13.07;;;5.10;;
22531;SDS011;11432;46.924;7.114;2023-09-30T01:08:21;12.80;;;5.35;;
22531;SDS011;11432;46.924;7.114;2023-09-30T01:10:46;15.35;;;5.38;;
22531;SDS011;11432;46.924;7.114;2023-09-30T01:13:13;14.43;;;5.00;;
22531;SDS011;11432;46.924;7.114;2023-09-30T01:15:39;14.95;;;4.60;;
22531;SDS011;11432;46.924;7.114;2023-09-30T01:18:04;15.48;;;6.00;;
22531;SDS011;11432;46.924;7.114;2023-09-30T01:20:31;15.80;;;4.90;;
22531;SDS011;11432;46.924;7.114;2023-09-30T01:22:57;13.32;;;5.50;;
22531;SDS011;11432;46.924;7.114;2023-09-30T01:25:23;18.42;;;5.32;;
22531;SDS011;11432;46.924;7.114;2023-09-30T01:27:52;17.25;;;5.80;;
22531;SDS011;11432;46.924;7.114;2023-09-30T01:30:19;13.55;;;5.70;;
22531;SDS011;11432;46.924;7.114;2023-09-30T01:32:44;15.98;;;5.40;;
22531;SDS011;11432;46.924;7.114;2023-09-30T01:35:10;14.05;;;5.10;;
22531;SDS011;11432;46.924;7.114;2023-09-30T01:37:36;12.48;;;5.13;;
22531;SDS011;11432;46.924;7.114;2023-09-30T01:40:02;11.88;;;4.95;;
22531;SDS011;11432;46.924;7.114;2023-09-30T01:42:36;11.68;;;4.78;;
22531;SDS011;11432;46.924;7.114;2023-09-30T01:45:02;14.10;;;5.25;;
22531;SDS011;11432;46.924;7.114;2023-09-30T01:47:28;12.73;;;4.78;;
22531;SDS011;11432;46.924;7.114;2023-09-30T01:49:54;12.52;;;5.07;;
22531;SDS011;11432;46.924;7.114;2023-09-30T01:52:20;11.00;;;4.50;;
22531;SDS011;11432;46.924;7.114;2023-09-30T01:54:46;14.73;;;6.18;;
22531;SDS011;11432;46.924;7.114;2023-09-30T01:57:11;13.27;;;4.63;;
22531;SDS011;11432;46.924;7.114;2023-09-30T01:59:37;11.40;;;4.78;;
22531;SDS011;11432;46.924;7.114;2023-09-30T02:02:02;13.80;;;4.90;;
22531;SDS011;11432;46.924;7.114;2023-09-30T02:04:28;14.18;;;4.72;;
22531;SDS011;11432;46.924;7.114;2023-09-30T02:06:54;13.25;;;5.07;;
22531;SDS011;11432;46.924;7.114;2023-09-30T02:09:20;14.25;;;4.43;;
22531;SDS011;11432;46.924;7.114;2023-09-30T02:11:46;13.55;;;4.50;;
22531;SDS011;11432;46.924;7.114;2023-09-30T02:14:11;16.33;;;4.88;;
22531;SDS011;11432;46.924;7.114;2023-09-30T02:16:40;12.20;;;4.40;;
22531;SDS011;11432;46.924;7.114;2023-09-30T02:19:05;14.57;;;5.18;;
22531;SDS011;11432;46.924;7.114;2023-09-30T02:21:31;16.63;;;5.40;;
22531;SDS011;11432;46.924;7.114;2023-09-30T02:23:57;11.90;;;5.00;;
22531;SDS011;11432;46.924;7.114;2023-09-30T02:26:23;14.93;;;5.25;;
22531;SDS011;11432;46.924;7.114;2023-09-30T02:28:50;14.27;;;4.68;;
22531;SDS011;11432;46.924;7.114;2023-09-30T02:31:17;14.40;;;5.05;;
22531;SDS011;11432;46.924;7.114;2023-09-30T02:33:43;16.13;;;4.40;;
22531;SDS011;11432;46.924;7.114;2023-09-30T02:36:09;12.00;;;4.47;;
22531;SDS011;11432;46.924;7.114;2023-09-30T02:38:34;13.57;;;5.13;;
22531;SDS011;11432;46.924;7.114;2023-09-30T02:41:03;12.60;;;4.55;;
22531;SDS011;11432;46.924;7.114;2023-09-30T02:43:29;11.80;;;5.20;;
22531;SDS011;11432;46.924;7.114;2023-09-30T02:45:54;12.30;;;4.53;;
22531;SDS011;11432;46.924;7.114;2023-09-30T02:48:20;13.77;;;4.85;;
22531;SDS011;11432;46.924;7.114;2023-09-30T02:50:46;17.45;;;4.85;;
22531;SDS011;11432;46.924;7.114;2023-09-30T02:53:12;14.13;;;5.03;;
22531;SDS011;11432;46.924;7.114;2023-09-30T02:55:38;13.98;;;4.93;;
22531;SDS011;11432;46.924;7.114;2023-09-30T02:58:04;12.57;;;4.68;;
22531;SDS011;11432;46.924;7.114;2023-09-30T03:00:30;13.50;;;4.65;;
22531;SDS011;11432;46.924;7.114;2023-09-30T03:02:59;15.85;;;5.65;;
22531;SDS011;11432;46.924;7.114;2023-09-30T03:05:26;13.63;;;5.22;;
22531;SDS011;11432;46.924;7.114;2023-09-30T03:07:53;14.43;;;4.85;;
22531;SDS011;11432;46.924;7.114;2023-09-30T03:10:19;12.48;;;4.95;;
22531;SDS011;11432;46.924;7.114;2023-09-30T03:12:48;15.02;;;5.70;;
22531;SDS011;11432;46.924;7.114;2023-09-30T03:17:41;12.13;;;4.57;;
22531;SDS011;11432;46.924;7.114;2023-09-30T03:20:07;16.30;;;4.80;;
22531;SDS011;11432;46.924;7.114;2023-09-30T03:22:36;16.95;;;4.97;;
22531;SDS011;11432;46.924;7.114;2023-09-30T03:27:35;11.93;;;4.47;;
22531;SDS011;11432;46.924;7.114;2023-09-30T03:30:02;15.60;;;5.38;;
22531;SDS011;11432;46.924;7.114;2023-09-30T03:34:58;10.98;;;4.32;;
22531;SDS011;11432;46.924;7.114;2023-09-30T03:37:29;19.85;;;5.40;;
22531;SDS011;11432;46.924;7.114;2023-09-30T03:39:56;13.10;;;5.13;;
22531;SDS011;11432;46.924;7.114;2023-09-30T03:42:22;16.15;;;5.13;;
22531;SDS011;11432;46.924;7.114;2023-09-30T03:44:47;15.23;;;5.38;;
22531;SDS011;11432;46.924;7.114;2023-09-30T03:47:16;17.60;;;5.25;;
22531;SDS011;11432;46.924;7.114;2023-09-30T03:49:43;14.98;;;5.40;;
22531;SDS011;11432;46.924;7.114;2023-09-30T03:52:09;13.73;;;5.72;;
22531;SDS011;11432;46.924;7.114;2023-09-30T03:54:35;15.15;;;4.95;;
22531;SDS011;11432;46.924;7.114;2023-09-30T03:57:02;15.50;;;5.50;;
22531;SDS011;11432;46.924;7.114;2023-09-30T03:59:28;16.80;;;5.63;;
22531;SDS011;11432;46.924;7.114;2023-09-30T04:01:55;15.77;;;5.57;;
22531;SDS011;11432;46.924;7.114;2023-09-30T04:04:22;12.63;;;5.30;;
22531;SDS011;11432;46.924;7.114;2023-09-30T04:06:48;16.20;;;5.43;;
22531;SDS011;11432;46.924;7.114;2023-09-30T04:09:16;13.75;;;5.50;;
22531;SDS011;11432;46.924;7.114;2023-09-30T04:11:42;13.55;;;5.70;;
22531;SDS011;11432;46.924;7.114;2023-09-30T04:14:08;14.73;;;5.57;;
22531;SDS011;11432;46.924;7.114;2023-09-30T04:16:35;14.98;;;5.60;;
22531;SDS011;11432;46.924;7.114;2023-09-30T04:19:02;13.88;;;5.38;;
22531;SDS011;11432;46.924;7.114;2023-09-30T04:21:28;19.00;;;6.10;;
22531;SDS011;11432;46.924;7.114;2023-09-30T04:23:56;15.93;;;5.70;;
22531;SDS011;11432;46.924;7.114;2023-09-30T04:26:22;15.18;;;5.28;;
22531;SDS011;11432;46.924;7.114;2023-09-30T04:28:48;17.55;;;5.47;;
22531;SDS011;11432;46.924;7.114;2023-09-30T04:31:15;17.10;;;6.22;;
22531;SDS011;11432;46.924;7.114;2023-09-30T04:33:40;17.02;;;5.82;;
22531;SDS011;11432;46.924;7.114;2023-09-30T04:36:06;15.15;;;5.35;;
22531;SDS011;11432;46.924;7.114;2023-09-30T04:38:34;13.63;;;5.43;;
22531;SDS011;11432;46.924;7.114;2023-09-30T04:41:02;15.50;;;5.40;;
22531;SDS011;11432;46.924;7.114;2023-09-30T04:43:28;14.35;;;5.50;;
22531;SDS011;11432;46.924;7.114;2023-09-30T04:45:54;16.00;;;5.53;;
22531;SDS011;11432;46.924;7.114;2023-09-30T04:48:22;14.13;;;5.03;;
22531;SDS011;11432;46.924;7.114;2023-09-30T04:50:48;16.70;;;5.78;;
22531;SDS011;11432;46.924;7.114;2023-09-30T04:53:14;15.45;;;5.28;;
22531;SDS011;11432;46.924;7.114;2023-09-30T04:55:42;14.27;;;4.95;;
22531;SDS011;11432;46.924;7.114;2023-09-30T04:58:08;13.57;;;5.15;;
22531;SDS011;11432;46.924;7.114;2023-09-30T05:00:34;15.93;;;6.00;;
22531;SDS011;11432;46.924;7.114;2023-09-30T05:03:00;16.65;;;5.70;;
22531;SDS011;11432;46.924;7.114;2023-09-30T05:05:26;14.80;;;5.32;;
22531;SDS011;11432;46.924;7.114;2023-09-30T05:07:52;15.60;;;5.75;;
22531;SDS011;11432;46.924;7.114;2023-09-30T05:10:17;13.10;;;5.18;;
22531;SDS011;11432;46.924;7.114;2023-09-30T05:12:44;12.93;;;4.88;;
22531;SDS011;11432;46.924;7.114;2023-09-30T05:15:12;16.55;;;5.55;;
22531;SDS011;11432;46.924;7.114;2023-09-30T05:17:40;14.55;;;5.88;;
22531;SDS011;11432;46.924;7.114;2023-09-30T05:20:08;14.20;;;5.40;;
22531;SDS011;11432;46.924;7.114;2023-09-30T05:22:37;17.02;;;6.38;;
22531;SDS011;11432;46.924;7.114;2023-09-30T05:25:04;14.25;;;5.68;;
22531;SDS011;11432;46.924;7.114;2023-09-30T05:27:30;14.73;;;5.13;;
22531;SDS011;11432;46.924;7.114;2023-09-30T05:29:55;16.98;;;5.50;;
22531;SDS011;11432;46.924;7.114;2023-09-30T05:32:21;19.95;;;6.63;;
22531;SDS011;11432;46.924;7.114;2023-09-30T05:34:47;14.77;;;6.00;;
22531;SDS011;11432;46.924;7.114;2023-09-30T05:37:13;16.65;;;6.20;;
22531;SDS011;11432;46.924;7.114;2023-09-30T05:39:39;17.02;;;6.35;;
22531;SDS011;11432;46.924;7.114;2023-09-30T05:42:05;18.25;;;6.43;;
22531;SDS011;11432;46.924;7.114;2023-09-30T05:44:32;18.58;;;6.72;;
22531;SDS011;11432;46.924;7.114;2023-09-30T05:46:57;17.20;;;6.57;;
22531;SDS011;11432;46.924;7.114;2023-09-30T05:49:25;15.07;;;5.47;;
22531;SDS011;11432;46.924;7.114;2023-09-30T05:51:50;19.65;;;6.18;;
22531;SDS011;11432;46.924;7.114;2023-09-30T05:54:16;17.50;;;6.65;;
22531;SDS011;11432;46.924;7.114;2023-09-30T05:56:42;19.65;;;5.93;;
22531;SDS011;11432;46.924;7.114;2023-09-30T05:59:08;14.18;;;5.75;;
22531;SDS011;11432;46.924;7.114;2023-09-30T06:01:35;17.00;;;6.18;;
22531;SDS011;11432;46.924;7.114;2023-09-30T06:04:01;19.92;;;6.93;;
22531;SDS011;11432;46.924;7.114;2023-09-30T06:06:27;19.95;;;6.40;;
22531;SDS011;11432;46.924;7.114;2023-09-30T06:08:56;18.70;;;6.17;;
22531;SDS011;11432;46.924;7.114;2023-09-30T06:11:25;16.70;;;6.43;;
22531;SDS011;11432;46.924;7.114;2023-09-30T06:13:56;19.17;;;6.65;;
22531;SDS011;11432;46.924;7.114;2023-09-30T06:16:26;16.65;;;5.78;;
22531;SDS011;11432;46.924;7.114;2023-09-30T06:18:52;20.52;;;6.47;;
22531;SDS011;11432;46.924;7.114;2023-09-30T06:21:19;17.83;;;6.18;;
22531;SDS011;11432;46.924;7.114;2023-09-30T06:23:49;22.70;;;6.72;;
22531;SDS011;11432;46.924;7.114;2023-09-30T06:26:18;21.13;;;7.40;;
22531;SDS011;11432;46.924;7.114;2023-09-30T06:28:44;18.80;;;6.18;;
22531;SDS011;11432;46.924;7.114;2023-09-30T06:31:10;16.75;;;6.07;;
22531;SDS011;11432;46.924;7.114;2023-09-30T06:33:36;21.40;;;6.30;;
22531;SDS011;11432;46.924;7.114;2023-09-30T06:36:07;18.17;;;5.90;;
22531;SDS011;11432;46.924;7.114;2023-09-30T06:38:39;18.17;;;6.38;;
22531;SDS011;11432;46.924;7.114;2023-09-30T06:41:06;21.90;;;6.68;;
22531;SDS011;11432;46.924;7.114;2023-09-30T06:43:33;13.48;;;6.18;;
22531;SDS011;11432;46.924;7.114;2023-09-30T06:46:04;15.85;;;6.25;;
22531;SDS011;11432;46.924;7.114;2023-09-30T06:48:34;17.33;;;6.68;;
22531;SDS011;11432;46.924;7.114;2023-09-30T06:51:00;21.50;;;6.32;;
22531;SDS011;11432;46.924;7.114;2023-09-30T06:53:26;18.63;;;6.47;;
22531;SDS011;11432;46.924;7.114;2023-09-30T06:55:52;15.23;;;6.35;;
22531;SDS011;11432;46.924;7.114;2023-09-30T06:58:18;18.42;;;6.47;;
22531;SDS011;11432;46.924;7.114;2023-09-30T07:00:50;15.03;;;6.10;;
22531;SDS011;11432;46.924;7.114;2023-09-30T07:03:19;20.75;;;6.70;;
22531;SDS011;11432;46.924;7.114;2023-09-30T07:05:45;19.42;;;7.05;;
22531;SDS011;11432;46.924;7.114;2023-09-30T07:08:14;24.30;;;8.18;;
22531;SDS011;11432;46.924;7.114;2023-09-30T07:10:41;18.88;;;6.60;;
22531;SDS011;11432;46.924;7.114;2023-09-30T07:13:07;19.05;;;6.88;;
22531;SDS011;11432;46.924;7.114;2023-09-30T07:15:33;19.55;;;6.78;;
22531;SDS011;11432;46.924;7.114;2023-09-30T07:17:59;16.60;;;6.60;;
22531;SDS011;11432;46.924;7.114;2023-09-30T07:20:24;14.95;;;6.38;;
22531;SDS011;11432;46.924;7.114;2023-09-30T07:22:51;17.80;;;6.20;;
22531;SDS011;11432;46.924;7.114;2023-09-30T07:25:17;18.95;;;6.43;;
22531;SDS011;11432;46.924;7.114;2023-09-30T07:27:43;18.00;;;6.18;;
22531;SDS011;11432;46.924;7.114;2023-09-30T07:30:10;15.63;;;6.53;;
22531;SDS011;11432;46.924;7.114;2023-09-30T07:32:37;19.92;;;6.78;;
22531;SDS011;11432;46.924;7.114;2023-09-30T07:35:03;20.67;;;7.28;;
22531;SDS011;11432;46.924;7.114;2023-09-30T07:37:29;17.23;;;6.82;;
22531;SDS011;11432;46.924;7.114;2023-09-30T07:39:54;18.75;;;6.68;;
22531;SDS011;11432;46.924;7.114;2023-09-30T07:42:20;18.48;;;6.15;;
22531;SDS011;11432;46.924;7.114;2023-09-30T07:44:47;24.50;;;6.75;;
22531;SDS011;11432;46.924;7.114;2023-09-30T07:47:13;15.40;;;6.50;;
22531;SDS011;11432;46.924;7.114;2023-09-30T07:49:39;19.52;;;6.57;;
22531;SDS011;11432;46.924;7.114;2023-09-30T07:52:05;19.33;;;6.65;;
22531;SDS011;11432;46.924;7.114;2023-09-30T07:54:31;22.10;;;7.15;;
22531;SDS011;11432;46.924;7.114;2023-09-30T07:56:56;18.05;;;6.95;;
22531;SDS011;11432;46.924;7.114;2023-09-30T07:59:24;18.35;;;6.40;;
22531;SDS011;11432;46.924;7.114;2023-09-30T08:01:50;16.70;;;6.40;;
22531;SDS011;11432;46.924;7.114;2023-09-30T08:04:17;18.08;;;6.50;;
22531;SDS011;11432;46.924;7.114;2023-09-30T08:06:43;21.55;;;6.63;;
22531;SDS011;11432;46.924;7.114;2023-09-30T08:09:09;19.05;;;6.60;;
22531;SDS011;11432;46.924;7.114;2023-09-30T08:11:38;17.08;;;6.75;;
22531;SDS011;11432;46.924;7.114;2023-09-30T08:14:04;19.65;;;6.63;;
22531;SDS011;11432;46.924;7.114;2023-09-30T08:16:35;16.05;;;6.38;;
22531;SDS011;11432;46.924;7.114;2023-09-30T08:19:02;18.95;;;7.07;;
22531;SDS011;11432;46.924;7.114;2023-09-30T08:21:28;23.05;;;7.15;;
22531;SDS011;11432;46.924;7.114;2023-09-30T08:23:54;18.77;;;6.40;;
22531;SDS011;11432;46.924;7.114;2023-09-30T08:26:19;16.33;;;6.20;;
22531;SDS011;11432;46.924;7.114;2023-09-30T08:28:45;16.92;;;5.93;;
22531;SDS011;11432;46.924;7.114;2023-09-30T08:31:11;17.10;;;6.13;;
22531;SDS011;11432;46.924;7.114;2023-09-30T08:33:36;19.55;;;5.90;;
22531;SDS011;11432;46.924;7.114;2023-09-30T08:36:05;17.23;;;6.50;;
22531;SDS011;11432;46.924;7.114;2023-09-30T08:38:35;16.50;;;6.50;;
22531;SDS011;11432;46.924;7.114;2023-09-30T08:41:02;18.75;;;6.35;;
22531;SDS011;11432;46.924;7.114;2023-09-30T08:43:28;18.77;;;6.18;;
22531;SDS011;11432;46.924;7.114;2023-09-30T08:45:56;20.00;;;6.33;;
22531;SDS011;11432;46.924;7.114;2023-09-30T08:48:23;16.17;;;5.80;;
22531;SDS011;11432;46.924;7.114;2023-09-30T08:50:51;19.13;;;6.35;;
22531;SDS011;11432;46.924;7.114;2023-09-30T08:53:22;16.02;;;6.45;;
22531;SDS011;11432;46.924;7.114;2023-09-30T08:55:49;17.10;;;5.43;;
22531;SDS011;11432;46.924;7.114;2023-09-30T08:58:19;13.60;;;5.15;;
22531;SDS011;11432;46.924;7.114;2023-09-30T09:00:46;15.45;;;6.22;;
22531;SDS011;11432;46.924;7.114;2023-09-30T09:03:13;17.23;;;6.13;;
22531;SDS011;11432;46.924;7.114;2023-09-30T09:05:39;17.50;;;6.50;;
22531;SDS011;11432;46.924;7.114;2023-09-30T09:08:05;17.75;;;6.43;;
22531;SDS011;11432;46.924;7.114;2023-09-30T09:10:31;17.40;;;6.03;;
22531;SDS011;11432;46.924;7.114;2023-09-30T09:12:58;18.83;;;6.00;;
22531;SDS011;11432;46.924;7.114;2023-09-30T09:15:25;14.02;;;5.53;;
22531;SDS011;11432;46.924;7.114;2023-09-30T09:17:53;19.08;;;5.78;;
22531;SDS011;11432;46.924;7.114;2023-09-30T09:20:20;17.38;;;5.43;;
22531;SDS011;11432;46.924;7.114;2023-09-30T09:22:48;15.27;;;5.68;;
22531;SDS011;11432;46.924;7.114;2023-09-30T09:25:17;17.58;;;5.72;;
22531;SDS011;11432;46.924;7.114;2023-09-30T09:27:43;14.10;;;5.25;;
22531;SDS011;11432;46.924;7.114;2023-09-30T09:30:30;13.38;;;4.65;;
22531;SDS011;11432;46.924;7.114;2023-09-30T09:35:25;19.42;;;5.30;;
22531;SDS011;11432;46.924;7.114;2023-09-30T09:37:59;16.20;;;4.80;;
22531;SDS011;11432;46.924;7.114;2023-09-30T09:40:26;14.32;;;5.10;;
22531;SDS011;11432;46.924;7.114;2023-09-30T09:42:54;13.13;;;4.50;;
22531;SDS011;11432;46.924;7.114;2023-09-30T09:45:24;12.93;;;4.30;;
22531;SDS011;11432;46.924;7.114;2023-09-30T09:47:54;15.52;;;4.53;;
22531;SDS011;11432;46.924;7.114;2023-09-30T09:50:20;14.52;;;4.60;;
22531;SDS011;11432;46.924;7.114;2023-09-30T09:52:48;16.60;;;4.85;;
22531;SDS011;11432;46.924;7.114;2023-09-30T09:55:19;14.13;;;4.43;;
22531;SDS011;11432;46.924;7.114;2023-09-30T09:57:49;21.05;;;5.82;;
22531;SDS011;11432;46.924;7.114;2023-09-30T10:00:16;15.93;;;5.40;;
22531;SDS011;11432;46.924;7.114;2023-09-30T10:02:44;14.57;;;4.63;;
22531;SDS011;11432;46.924;7.114;2023-09-30T10:05:11;16.95;;;5.20;;
22531;SDS011;11432;46.924;7.114;2023-09-30T10:07:38;14.98;;;4.80;;
22531;SDS011;11432;46.924;7.114;2023-09-30T10:10:18;15.77;;;4.50;;
22531;SDS011;11432;46.924;7.114;2023-09-30T10:12:45;12.55;;;4.50;;
22531;SDS011;11432;46.924;7.114;2023-09-30T10:17:59;12.55;;;4.13;;
22531;SDS011;11432;46.924;7.114;2023-09-30T10:20:40;18.55;;;4.45;;
22531;SDS011;11432;46.924;7.114;2023-09-30T10:25:44;11.07;;;4.35;;
22531;SDS011;11432;46.924;7.114;2023-09-30T10:31:19;10.73;;;3.78;;
22531;SDS011;11432;46.924;7.114;2023-09-30T10:38:57;11.38;;;3.83;;
22531;SDS011;11432;46.924;7.114;2023-09-30T10:46:59;11.85;;;3.55;;
22531;SDS011;11432;46.924;7.114;2023-09-30T10:49:45;11.73;;;4.05;;
22531;SDS011;11432;46.924;7.114;2023-09-30T10:52:12;11.93;;;4.28;;
22531;SDS011;11432;46.924;7.114;2023-09-30T10:54:50;12.77;;;3.95;;
22531;SDS011;11432;46.924;7.114;2023-09-30T10:57:26;14.27;;;4.53;;
22531;SDS011;11432;46.924;7.114;2023-09-30T11:00:10;15.65;;;4.95;;
22531;SDS011;11432;46.924;7.114;2023-09-30T11:02:52;13.00;;;4.55;;
22531;SDS011;11432;46.924;7.114;2023-09-30T11:05:18;16.02;;;4.07;;
22531;SDS011;11432;46.924;7.114;2023-09-30T11:07:47;11.48;;;4.57;;
22531;SDS011;11432;46.924;7.114;2023-09-30T11:10:17;10.80;;;3.88;;
22531;SDS011;11432;46.924;7.114;2023-09-30T11:12:53;11.80;;;4.10;;
22531;SDS011;11432;46.924;7.114;2023-09-30T11:15:19;14.13;;;3.92;;
22531;SDS011;11432;46.924;7.114;2023-09-30T11:17:45;14.38;;;3.72;;
22531;SDS011;11432;46.924;7.114;2023-09-30T11:20:11;10.35;;;4.07;;
22531;SDS011;11432;46.924;7.114;2023-09-30T11:22:37;11.25;;;3.70;;
22531;SDS011;11432;46.924;7.114;2023-09-30T11:25:04;11.75;;;4.65;;
22531;SDS011;11432;46.924;7.114;2023-09-30T11:27:30;15.30;;;4.97;;
22531;SDS011;11432;46.924;7.114;2023-09-30T11:29:56;13.23;;;4.00;;
22531;SDS011;11432;46.924;7.114;2023-09-30T11:32:27;13.93;;;4.38;;
22531;SDS011;11432;46.924;7.114;2023-09-30T11:34:54;11.13;;;3.60;;
22531;SDS011;11432;46.924;7.114;2023-09-30T11:37:19;10.23;;;3.95;;
22531;SDS011;11432;46.924;7.114;2023-09-30T11:39:46;16.67;;;4.93;;
22531;SDS011;11432;46.924;7.114;2023-09-30T11:42:16;16.00;;;6.32;;
22531;SDS011;11432;46.924;7.114;2023-09-30T11:44:44;11.68;;;3.83;;
22531;SDS011;11432;46.924;7.114;2023-09-30T11:47:14;11.40;;;3.85;;
22531;SDS011;11432;46.924;7.114;2023-09-30T11:49:40;15.80;;;5.22;;
22531;SDS011;11432;46.924;7.114;2023-09-30T11:52:13;13.40;;;4.45;;
22531;SDS011;11432;46.924;7.114;2023-09-30T11:54:43;12.10;;;4.20;;
22531;SDS011;11432;46.924;7.114;2023-09-30T11:57:11;10.25;;;3.80;;
22531;SDS011;11432;46.924;7.114;2023-09-30T11:59:40;12.85;;;3.80;;
22531;SDS011;11432;46.924;7.114;2023-09-30T12:02:06;12.80;;;4.60;;
22531;SDS011;11432;46.924;7.114;2023-09-30T12:04:36;11.25;;;4.50;;
22531;SDS011;11432;46.924;7.114;2023-09-30T12:07:02;13.10;;;4.57;;
22531;SDS011;11432;46.924;7.114;2023-09-30T12:09:28;12.02;;;4.22;;
22531;SDS011;11432;46.924;7.114;2023-09-30T12:11:55;14.27;;;4.68;;
22531;SDS011;11432;46.924;7.114;2023-09-30T12:14:22;11.82;;;4.30;;
22531;SDS011;11432;46.924;7.114;2023-09-30T12:16:49;13.55;;;4.40;;
22531;SDS011;11432;46.924;7.114;2023-09-30T12:19:18;11.48;;;3.97;;
22531;SDS011;11432;46.924;7.114;2023-09-30T12:21:45;11.38;;;4.20;;
22531;SDS011;11432;46.924;7.114;2023-09-30T12:24:13;12.52;;;4.55;;
22531;SDS011;11432;46.924;7.114;2023-09-30T12:26:48;12.93;;;4.43;;
22531;SDS011;11432;46.924;7.114;2023-09-30T12:29:15;10.77;;;3.55;;
22531;SDS011;11432;46.924;7.114;2023-09-30T12:31:44;10.30;;;3.83;;
22531;SDS011;11432;46.924;7.114;2023-09-30T12:34:10;12.23;;;4.05;;
22531;SDS011;11432;46.924;7.114;2023-09-30T12:36:37;9.00;;;3.95;;
22531;SDS011;11432;46.924;7.114;2023-09-30T12:39:04;13.32;;;4.32;;
22531;SDS011;11432;46.924;7.114;2023-09-30T12:41:36;13.95;;;4.45;;
22531;SDS011;11432;46.924;7.114;2023-09-30T12:44:02;10.90;;;3.92;;
22531;SDS011;11432;46.924;7.114;2023-09-30T12:46:27;14.98;;;4.45;;
22531;SDS011;11432;46.924;7.114;2023-09-30T12:48:54;11.48;;;4.47;;
22531;SDS011;11432;46.924;7.114;2023-09-30T12:51:20;11.13;;;3.85;;
22531;SDS011;11432;46.924;7.114;2023-09-30T12:53:45;12.68;;;4.63;;
22531;SDS011;11432;46.924;7.114;2023-09-30T12:56:11;11.07;;;3.80;;
22531;SDS011;11432;46.924;7.114;2023-09-30T12:58:37;12.27;;;3.42;;
22531;SDS011;11432;46.924;7.114;2023-09-30T13:01:03;10.10;;;3.70;;
22531;SDS011;11432;46.924;7.114;2023-09-30T13:03:31;10.02;;;3.50;;
22531;SDS011;11432;46.924;7.114;2023-09-30T13:05:57;9.63;;;3.58;;
22531;SDS011;11432;46.924;7.114;2023-09-30T13:08:23;9.77;;;2.83;;
22531;SDS011;11432;46.924;7.114;2023-09-30T13:10:48;9.57;;;3.38;;
22531;SDS011;11432;46.924;7.114;2023-09-30T13:13:15;9.07;;;3.08;;
22531;SDS011;11432;46.924;7.114;2023-09-30T13:15:41;8.88;;;3.10;;
22531;SDS011;11432;46.924;7.114;2023-09-30T13:18:07;9.70;;;3.20;;
22531;SDS011;11432;46.924;7.114;2023-09-30T13:20:33;11.70;;;4.03;;
22531;SDS011;11432;46.924;7.114;2023-09-30T13:22:58;12.30;;;3.72;;
22531;SDS011;11432;46.924;7.114;2023-09-30T13:25:24;13.75;;;3.92;;
22531;SDS011;11432;46.924;7.114;2023-09-30T13:27:51;11.25;;;4.00;;
22531;SDS011;11432;46.924;7.114;2023-09-30T13:30:17;11.85;;;3.67;;
22531;SDS011;11432;46.924;7.114;2023-09-30T13:32:42;10.90;;;3.88;;
22531;SDS011;11432;46.924;7.114;2023-09-30T13:35:09;11.73;;;3.42;;
22531;SDS011;11432;46.924;7.114;2023-09-30T13:37:35;11.38;;;4.00;;
22531;SDS011;11432;46.924;7.114;2023-09-30T13:40:02;9.77;;;3.60;;
22531;SDS011;11432;46.924;7.114;2023-09-30T13:42:29;14.10;;;3.80;;
22531;SDS011;11432;46.924;7.114;2023-09-30T13:44:56;9.85;;;3.85;;
22531;SDS011;11432;46.924;7.114;2023-09-30T13:47:25;11.60;;;4.15;;
22531;SDS011;11432;46.924;7.114;2023-09-30T13:49:51;10.25;;;3.40;;
22531;SDS011;11432;46.924;7.114;2023-09-30T13:52:17;9.90;;;3.67;;
22531;SDS011;11432;46.924;7.114;2023-09-30T13:54:43;11.30;;;3.78;;
22531;SDS011;11432;46.924;7.114;2023-09-30T13:57:08;9.30;;;3.40;;
22531;SDS011;11432;46.924;7.114;2023-09-30T13:59:34;7.63;;;3.30;;
22531;SDS011;11432;46.924;7.114;2023-09-30T14:02:01;10.05;;;3.83;;
22531;SDS011;11432;46.924;7.114;2023-09-30T14:07:02;9.10;;;3.70;;
22531;SDS011;11432;46.924;7.114;2023-09-30T14:09:28;11.55;;;3.65;;
22531;SDS011;11432;46.924;7.114;2023-09-30T14:11:54;9.82;;;3.88;;
22531;SDS011;11432;46.924;7.114;2023-09-30T14:14:20;11.65;;;4.07;;
22531;SDS011;11432;46.924;7.114;2023-09-30T14:16:46;11.13;;;3.60;;
22531;SDS011;11432;46.924;7.114;2023-09-30T14:19:12;10.80;;;3.55;;
22531;SDS011;11432;46.924;7.114;2023-09-30T14:21:38;9.85;;;3.60;;
22531;SDS011;11432;46.924;7.114;2023-09-30T14:24:05;10.50;;;3.60;;
22531;SDS011;11432;46.924;7.114;2023-09-30T14:26:31;8.40;;;3.25;;
22531;SDS011;11432;46.924;7.114;2023-09-30T14:28:58;9.70;;;3.08;;
22531;SDS011;11432;46.924;7.114;2023-09-30T14:31:23;8.50;;;3.08;;
22531;SDS011;11432;46.924;7.114;2023-09-30T14:33:49;10.23;;;4.13;;
22531;SDS011;11432;46.924;7.114;2023-09-30T14:36:16;9.90;;;3.65;;
22531;SDS011;11432;46.924;7.114;2023-09-30T14:38:43;10.27;;;3.78;;
22531;SDS011;11432;46.924;7.114;2023-09-30T14:41:10;10.60;;;3.47;;
22531;SDS011;11432;46.924;7.114;2023-09-30T14:43:37;11.35;;;4.25;;
22531;SDS011;11432;46.924;7.114;2023-09-30T14:46:03;11.30;;;3.92;;
22531;SDS011;11432;46.924;7.114;2023-09-30T14:48:30;12.80;;;4.03;;
22531;SDS011;11432;46.924;7.114;2023-09-30T14:50:55;11.77;;;4.18;;
22531;SDS011;11432;46.924;7.114;2023-09-30T14:53:22;9.57;;;3.47;;
22531;SDS011;11432;46.924;7.114;2023-09-30T14:55:48;10.20;;;4.20;;
22531;SDS011;11432;46.924;7.114;2023-09-30T14:58:14;9.20;;;3.13;;
22531;SDS011;11432;46.924;7.114;2023-09-30T15:00:40;8.40;;;3.13;;
22531;SDS011;11432;46.924;7.114;2023-09-30T15:03:06;8.55;;;3.30;;
22531;SDS011;11432;46.924;7.114;2023-09-30T15:05:32;9.35;;;3.42;;
22531;SDS011;11432;46.924;7.114;2023-09-30T15:07:58;11.50;;;3.70;;